Time;durP1;ratioP1;P1;durP2;ratioP2;P2;SDS_P1;SDS_P2;PMS_P1;PMS_P2;Temp;Humidity;BMP_temperature;BMP_pressure;BME280_temperature;BME280_humidity;BME280_pressure;Samples;Min_cycle;Max_cycle;Signal;HPM_P1;HPM_P2
2024/01/07 00:02:09;;;;;;;23.43;15.63;;;0.90;99.90;;;-141.84;93.27;68336.31;5058984;28;20236;-58
2024/01/07 00:04:37;;;;;;;25.50;14.67;;;1.00;99.90;;;-141.84;91.12;59917.56;5060244;28;20232;-58
2024/01/07 00:07:06;;;;;;;24.47;15.33;;;1.10;99.90;;;-141.84;89.89;50467.75;5059019;28;20193;-58
2024/01/07 00:09:34;;;;;;;21.77;14.57;;;1.10;99.90;;;-141.84;89.81;48894.97;5058627;28;20204;-57
2024/01/07 00:12:02;;;;;;;24.53;15.10;;;1.00;99.90;;;-141.84;90.87;54140.00;5048109;28;20260;-58
2024/01/07 00:14:31;;;;;;;24.40;15.60;;;1.00;99.90;;;-141.84;89.45;49681.28;5041239;28;20267;-59
2024/01/07 00:16:59;;;;;;;24.30;15.27;;;1.10;99.90;;;-141.84;89.61;48108.81;5040740;28;20728;-59
2024/01/07 00:19:31;;;;;;;24.80;15.87;;;1.10;99.90;;;-141.84;90.18;50467.75;5041093;28;20317;-56
2024/01/07 00:21:59;;;;;;;26.27;15.03;;;1.00;99.90;;;-141.84;90.93;55452.34;5042658;28;20186;-55
2024/01/07 00:24:28;;;;;;;23.50;15.07;;;1.00;99.90;;;-141.84;91.85;60706.06;5042548;28;20704;-56
2024/01/07 00:26:57;;;;;;;23.67;14.03;;;1.00;99.90;;;-141.84;90.36;53615.19;5040570;28;20232;-57
2024/01/07 00:29:25;;;;;;;23.37;13.97;;;1.10;99.90;;;-141.84;88.90;43918.63;5042538;28;20226;-57
2024/01/07 00:31:53;;;;;;;20.00;14.17;;;1.10;99.90;;;-141.84;90.23;51516.59;5043495;28;20224;-57
2024/01/07 00:34:22;;;;;;;20.57;13.47;;;1.00;99.90;;;-141.84;90.05;53877.56;5048105;28;20208;-58
2024/01/07 00:36:51;;;;;;;21.87;14.50;;;1.00;99.90;;;-141.84;90.03;50729.94;5043674;28;20331;-56
2024/01/07 00:39:20;;;;;;;22.07;13.60;;;1.00;99.90;;;-141.84;88.13;42086.81;5045777;28;20229;-56
2024/01/07 00:41:48;;;;;;;20.73;14.13;;;1.00;99.90;;;-141.84;87.76;36116.84;5045539;28;20292;-57
2024/01/07 00:44:16;;;;;;;21.53;13.40;;;1.10;99.90;;;-141.84;88.12;35967.88;5047596;28;20911;-58
2024/01/07 00:46:45;;;;;;;17.93;12.03;;;0.90;99.90;;;-141.84;88.11;38678.97;5053404;28;20260;-57
2024/01/07 00:49:16;;;;;;;19.13;12.60;;;0.90;99.90;;;-141.84;87.98;37388.50;5053438;28;20252;-57
2024/01/07 00:51:45;;;;;;;19.20;12.47;;;0.90;99.90;;;-141.84;86.21;29391.91;5053883;28;20322;-57
2024/01/07 00:54:15;;;;;;;18.97;11.70;;;0.90;99.90;;;-141.84;83.80;20809.81;5053341;28;20631;-54
2024/01/07 00:56:43;;;;;;;18.30;12.13;;;0.90;99.90;;;-141.84;84.37;21275.38;5052975;28;20229;-57
2024/01/07 00:59:11;;;;;;;20.17;12.33;;;0.80;99.90;;;-141.84;83.56;20880.97;5053196;28;20249;-57
2024/01/07 01:01:39;;;;;;;21.30;12.63;;;0.90;99.90;;;-141.84;83.20;20021.16;5053300;28;20290;-58
2024/01/07 01:04:08;;;;;;;18.63;11.70;;;0.80;99.90;;;-141.84;81.68;19173.69;5052944;28;20220;-57
2024/01/07 01:06:36;;;;;;;19.83;12.40;;;0.90;99.90;;;-141.84;82.48;19409.41;5053605;28;20578;-57
2024/01/07 01:09:05;;;;;;;20.70;12.37;;;0.90;99.90;;;-141.84;81.21;18940.03;5052965;28;20225;-57
2024/01/07 01:11:34;;;;;;;18.23;12.23;;;0.90;99.90;;;-141.84;81.17;18911.56;5045039;28;20257;-58
2024/01/07 01:14:02;;;;;;;17.87;11.40;;;1.00;99.90;;;-141.84;81.94;19240.75;5053042;28;20225;-59
2024/01/07 01:16:31;;;;;;;17.40;10.97;;;0.90;99.90;;;-141.84;81.33;18970.50;5052805;28;20312;-55
2024/01/07 01:18:59;;;;;;;16.80;11.23;;;0.90;99.90;;;-141.84;82.95;19586.22;5053161;28;20227;-57
2024/01/07 01:21:27;;;;;;;18.17;11.20;;;0.80;99.90;;;-141.84;83.92;20480.50;5052309;28;20226;-58
2024/01/07 01:23:55;;;;;;;16.77;11.43;;;0.70;99.90;;;-141.84;84.62;21147.28;5052289;28;20812;-57
2024/01/07 01:26:24;;;;;;;17.90;12.47;;;0.60;99.90;;;-141.84;82.51;19637.03;5052493;28;20238;-58
2024/01/07 01:28:53;;;;;;;16.47;10.83;;;0.60;99.90;;;-141.84;82.52;19559.81;5052950;28;20233;-58
2024/01/07 01:31:21;;;;;;;18.57;10.90;;;0.60;99.90;;;-141.84;82.01;19133.06;5052116;28;20198;-58
2024/01/07 01:33:50;;;;;;;17.90;11.47;;;0.60;99.90;;;-141.84;82.88;19641.09;5052766;28;20284;-56
2024/01/07 01:36:18;;;;;;;20.37;12.20;;;0.70;99.90;;;-141.84;84.25;21159.50;5054867;28;20230;-58
2024/01/07 01:38:48;;;;;;;16.53;11.30;;;0.60;99.90;;;-141.84;83.77;20893.16;5052153;28;20305;-58
2024/01/07 01:41:17;;;;;;;16.30;11.43;;;0.80;99.90;;;-141.84;83.16;19978.47;5047591;28;20694;-58
2024/01/07 01:43:45;;;;;;;19.07;12.13;;;0.70;99.90;;;-141.84;82.83;19846.34;5051931;28;20261;-58
2024/01/07 01:46:15;;;;;;;17.83;11.63;;;0.60;99.90;;;-141.84;81.27;19066.00;5041518;28;20316;-54
2024/01/07 01:48:44;;;;;;;19.07;11.23;;;0.80;99.90;;;-141.84;80.21;18732.78;5047568;28;20206;-58
2024/01/07 01:51:13;;;;;;;17.03;11.63;;;0.80;99.90;;;-141.84;79.38;18493.03;5051761;28;20300;-58
2024/01/07 01:53:41;;;;;;;18.77;11.67;;;0.80;99.90;;;-141.84;80.12;18651.50;5051956;28;20271;-55
2024/01/07 01:56:09;;;;;;;18.77;11.43;;;0.70;99.90;;;-141.84;80.81;18826.25;5052046;28;20282;-59
2024/01/07 01:58:38;;;;;;;15.90;10.67;;;0.70;99.90;;;-141.84;81.44;18935.97;5048917;28;20268;-58
2024/01/07 02:01:06;;;;;;;14.93;10.40;;;0.70;99.90;;;-141.84;78.05;18417.84;5052468;28;20201;-60
2024/01/07 02:03:36;;;;;;;14.77;10.17;;;0.80;99.90;;;-141.84;79.52;18521.47;5052037;28;20895;-58
2024/01/07 02:06:05;;;;;;;14.53;9.67;;;0.80;99.90;;;-141.84;78.14;18444.28;5058759;28;20249;-56
2024/01/07 02:08:34;;;;;;;12.63;9.23;;;0.80;99.90;;;-141.84;79.31;18456.47;5051751;28;20226;-57
2024/01/07 02:11:16;;;;;;;13.37;10.00;;;0.70;99.90;;;-141.84;78.00;18411.75;5051967;28;20267;-58
2024/01/07 02:13:45;;;;;;;13.77;10.20;;;0.70;99.90;;;-141.84;78.04;18423.94;5044725;28;20234;-55
2024/01/07 02:16:14;;;;;;;15.50;9.77;;;0.70;99.90;;;-141.84;78.82;18456.47;5051795;28;20197;-57
2024/01/07 02:18:46;;;;;;;13.43;10.30;;;0.60;99.90;;;-141.84;78.33;18395.50;5051698;28;20206;-55
2024/01/07 02:21:15;;;;;;;15.03;9.37;;;0.70;99.90;;;-141.84;77.00;18310.19;5051545;28;20213;-55
2024/01/07 02:23:44;;;;;;;15.47;9.93;;;0.80;99.90;;;-141.84;77.78;18423.94;5051231;28;20746;-59
2024/01/07 02:26:13;;;;;;;13.00;9.13;;;0.80;99.90;;;-141.84;79.06;18497.09;5051813;28;20343;-58
2024/01/07 02:28:41;;;;;;;16.00;10.37;;;0.70;99.90;;;-141.84;77.92;18371.13;5051369;28;20236;-57
2024/01/07 02:31:10;;;;;;;13.60;9.67;;;0.70;99.90;;;-141.84;78.52;18458.50;5051287;28;20206;-57
2024/01/07 02:33:38;;;;;;;13.07;9.23;;;0.60;99.90;;;-141.84;76.79;18338.63;5051771;28;20189;-56
2024/01/07 02:36:07;;;;;;;13.77;9.87;;;0.60;99.90;;;-141.84;76.63;18304.09;5047903;28;20232;-59
2024/01/07 02:38:35;;;;;;;12.33;9.40;;;0.60;99.90;;;-141.84;77.18;18354.88;5047904;28;20222;-57
2024/01/07 02:41:05;;;;;;;12.93;9.43;;;0.70;99.90;;;-141.84;77.30;18348.78;5051504;28;20290;-55
2024/01/07 02:43:34;;;;;;;12.90;9.67;;;0.70;99.90;;;-141.84;78.66;18488.97;5051240;28;20316;-58
2024/01/07 02:46:03;;;;;;;13.50;9.10;;;0.70;99.90;;;-141.84;77.74;18391.44;5051466;28;20658;-57
2024/01/07 02:48:31;;;;;;;14.50;9.33;;;0.60;99.90;;;-141.84;77.03;18352.84;5051341;28;20592;-57
2024/01/07 02:51:00;;;;;;;12.80;9.17;;;0.70;99.90;;;-141.84;75.84;18263.47;5051036;28;20290;-57
2024/01/07 02:53:28;;;;;;;14.00;9.43;;;0.70;99.90;;;-141.84;75.96;18289.88;5050682;28;20240;-57
2024/01/07 02:55:56;;;;;;;14.60;9.33;;;0.60;99.90;;;-141.84;74.97;18277.69;5050695;28;20290;-57
2024/01/07 02:58:25;;;;;;;14.07;9.30;;;0.70;99.90;;;-141.84;74.73;18255.34;5051117;28;20235;-57
2024/01/07 03:00:54;;;;;;;13.47;8.90;;;0.60;99.90;;;-141.84;75.35;18287.84;5051688;28;20197;-58
2024/01/07 03:03:23;;;;;;;12.00;8.93;;;0.60;99.90;;;-141.84;75.87;18348.78;5050658;28;20221;-59
2024/01/07 03:05:51;;;;;;;13.63;8.47;;;0.50;99.90;;;-141.84;75.60;18271.59;5057113;28;20286;-59
2024/01/07 03:08:19;;;;;;;12.97;8.13;;;0.50;99.90;;;-141.84;76.03;18322.38;5050552;28;20679;-59
2024/01/07 03:10:47;;;;;;;12.30;8.10;;;0.40;99.90;;;-141.84;76.10;18322.38;5050836;28;20228;-57
2024/01/07 03:13:16;;;;;;;11.47;8.30;;;0.50;99.90;;;-141.84;76.17;18336.59;5050424;28;20259;-57
2024/01/07 03:15:44;;;;;;;10.73;7.67;;;0.50;99.90;;;-141.84;75.01;18275.66;5050816;28;20205;-58
2024/01/07 03:18:14;;;;;;;11.80;7.50;;;0.40;99.90;;;-141.84;75.29;18285.81;5050299;28;20280;-56
2024/01/07 03:20:42;;;;;;;12.20;8.23;;;0.40;99.90;;;-141.84;73.88;18228.91;5050303;28;20225;-57
2024/01/07 03:23:10;;;;;;;9.17;6.87;;;0.40;99.90;;;-141.84;74.03;18269.56;5050496;28;20768;-57
2024/01/07 03:25:38;;;;;;;9.87;7.37;;;0.40;99.90;;;-141.84;74.24;18257.38;5050327;28;20233;-57
2024/01/07 03:28:07;;;;;;;11.03;7.03;;;0.30;99.90;;;-141.84;74.49;18249.25;5050208;28;20204;-59
2024/01/07 03:30:35;;;;;;;11.50;7.47;;;0.30;99.90;;;-141.84;74.31;18316.28;5050761;28;20234;-57
2024/01/07 03:33:04;;;;;;;10.47;6.67;;;0.30;99.90;;;-141.84;73.27;18235.00;5050522;28;20228;-58
2024/01/07 03:35:34;;;;;;;11.83;6.87;;;0.40;99.90;;;-141.84;72.55;18222.81;5052201;28;20239;-58
2024/01/07 03:38:03;;;;;;;11.23;6.67;;;0.40;99.90;;;-141.84;72.58;18206.56;5050467;28;20764;-58
2024/01/07 03:40:31;;;;;;;9.33;6.50;;;0.30;99.90;;;-141.84;72.85;18208.59;5048011;28;20251;-57
2024/01/07 03:42:59;;;;;;;9.70;6.50;;;0.10;99.90;;;-141.84;72.06;18237.06;5042704;28;20310;-57
2024/01/07 03:45:27;;;;;;;9.70;6.27;;;0.20;99.90;;;-141.84;71.64;18235.00;5050176;28;20234;-57
2024/01/07 03:47:56;;;;;;;9.47;5.57;;;0.20;99.90;;;-141.84;72.39;18243.16;5050051;28;20229;-58
2024/01/07 03:50:24;;;;;;;8.43;6.20;;;0.10;99.90;;;-141.84;72.09;18226.88;5050284;28;20758;-56
2024/01/07 03:52:54;;;;;;;9.30;6.30;;;0.10;99.90;;;-141.84;72.06;18257.38;5050598;28;20226;-55
2024/01/07 03:55:22;;;;;;;10.83;6.13;;;0.10;99.90;;;-141.84;72.21;18216.72;5050187;28;20196;-56
2024/01/07 03:57:50;;;;;;;9.97;5.93;;;0.10;99.90;;;-141.84;71.27;18249.25;5050982;28;20195;-54
2024/01/07 04:00:19;;;;;;;7.57;5.43;;;0.20;99.90;;;-141.84;71.56;18241.13;5050052;28;20244;-58
2024/01/07 04:02:47;;;;;;;9.43;5.87;;;0.20;99.90;;;-141.84;71.63;18228.91;5050042;28;20304;-56
2024/01/07 04:05:16;;;;;;;8.83;6.27;;;0.10;99.90;;;-141.84;71.30;18235.00;5050232;28;20229;-57
2024/01/07 04:07:44;;;;;;;8.70;5.70;;;0.10;99.90;;;-141.84;72.08;18214.69;5054402;28;20233;-57
2024/01/07 04:10:14;;;;;;;9.53;6.37;;;0.00;99.90;;;-141.84;72.41;18208.59;5053947;28;20224;-57
2024/01/07 04:12:42;;;;;;;8.27;5.70;;;0.00;99.90;;;-141.84;72.11;18230.94;5051034;28;20201;-55
2024/01/07 04:15:11;;;;;;;8.13;5.87;;;0.10;99.90;;;-141.84;72.29;18237.06;5050184;28;20224;-57
2024/01/07 04:17:40;;;;;;;11.07;6.27;;;0.10;99.90;;;-141.84;72.14;18222.81;5053869;28;20225;-55
2024/01/07 04:20:13;;;;;;;10.53;6.07;;;0.10;99.90;;;-141.84;71.80;18222.81;5053660;28;20711;-57
2024/01/07 04:22:41;;;;;;;8.43;5.27;;;0.20;99.90;;;-141.84;71.41;18239.09;5053646;28;20255;-57
2024/01/07 04:25:10;;;;;;;8.40;5.63;;;0.20;99.90;;;-141.84;71.13;18226.88;5053805;28;20305;-57
2024/01/07 04:27:40;;;;;;;7.20;5.37;;;0.20;99.90;;;-141.84;69.57;18263.47;5054184;28;20843;-59
2024/01/07 04:30:10;;;;;;;8.30;5.60;;;0.30;99.90;;;-141.84;70.02;18247.22;5053342;28;20225;-57
2024/01/07 04:32:38;;;;;;;7.23;5.30;;;0.30;99.90;;;-141.84;70.53;18239.09;5053336;28;20324;-58
2024/01/07 04:35:07;;;;;;;8.77;5.83;;;0.20;99.90;;;-141.84;70.68;18228.91;5053708;28;20264;-57
2024/01/07 04:37:36;;;;;;;6.03;4.90;;;0.20;99.90;;;-141.84;69.16;18226.88;5053630;28;20225;-57
2024/01/07 04:40:06;;;;;;;8.23;4.90;;;0.20;99.90;;;-141.84;69.55;18235.00;5051732;28;20287;-57
2024/01/07 04:42:35;;;;;;;7.67;4.93;;;0.20;99.90;;;-141.84;70.18;18220.78;5053917;28;20815;-59
2024/01/07 04:45:07;;;;;;;7.80;5.37;;;0.20;99.90;;;-141.84;70.29;18237.06;5046279;28;20223;-59
2024/01/07 04:47:35;;;;;;;8.63;5.03;;;0.10;99.90;;;-141.84;70.20;18214.69;5053326;28;20718;-58
2024/01/07 04:50:06;;;;;;;6.87;4.93;;;0.00;99.90;;;-141.84;71.12;18228.91;5053670;28;20294;-56
2024/01/07 04:52:34;;;;;;;7.57;5.07;;;0.00;99.90;;;-141.84;69.28;18237.06;5053709;28;20298;-61
2024/01/07 04:55:02;;;;;;;6.67;4.77;;;0.10;99.90;;;-141.84;69.41;18214.69;5053855;28;20276;-57
2024/01/07 04:57:30;;;;;;;7.80;4.63;;;0.10;99.90;;;-141.84;68.91;18247.22;5053655;28;20232;-56
2024/01/07 04:59:59;;;;;;;7.67;5.00;;;0.10;99.90;;;-141.84;69.57;18249.25;5053037;28;20223;-56
2024/01/07 05:02:28;;;;;;;8.10;5.20;;;-0.10;99.90;;;-141.84;69.59;18208.59;5053259;28;20226;-60
2024/01/07 05:04:57;;;;;;;6.83;5.13;;;-0.10;99.90;;;-141.84;69.76;18243.16;5058668;28;20313;-56
2024/01/07 05:07:25;;;;;;;7.20;4.97;;;-0.30;99.90;;;-141.84;69.46;18222.81;5048059;28;20206;-57
2024/01/07 05:09:53;;;;;;;6.70;4.40;;;-0.20;99.90;;;-141.84;68.62;18247.22;5050928;28;20257;-58
2024/01/07 05:12:21;;;;;;;5.77;4.43;;;-0.20;99.90;;;-141.84;68.50;18255.34;5042967;28;20236;-58
2024/01/07 05:14:50;;;;;;;5.73;4.73;;;-0.20;99.90;;;-141.84;68.50;18243.16;5046819;28;20232;-61
2024/01/07 05:17:18;;;;;;;6.97;4.30;;;-0.20;99.90;;;-141.84;67.81;18255.34;5050986;28;20259;-58
2024/01/07 05:19:48;;;;;;;6.40;4.47;;;-0.10;99.90;;;-141.84;68.26;18235.00;5048909;28;20274;-58
2024/01/07 05:22:17;;;;;;;7.20;4.47;;;-0.10;99.90;;;-141.84;68.89;18230.94;5052722;28;20192;-54
2024/01/07 05:24:45;;;;;;;6.47;5.13;;;-0.20;99.90;;;-141.84;68.68;18253.31;5053085;28;20207;-59
2024/01/07 05:27:14;;;;;;;8.23;4.73;;;-0.20;99.90;;;-141.84;68.46;18206.56;5052889;28;20274;-58
2024/01/07 05:29:47;;;;;;;5.07;4.00;;;-0.10;99.90;;;-141.84;67.80;18257.38;5052449;28;20705;-55
2024/01/07 05:32:15;;;;;;;6.20;4.60;;;-0.10;99.90;;;-141.84;67.91;18232.97;5044920;28;20292;-55
2024/01/07 05:34:43;;;;;;;5.87;4.50;;;-0.10;99.90;;;-141.84;67.09;18249.25;5052674;28;20279;-56
2024/01/07 05:37:13;;;;;;;4.57;3.77;;;0.00;99.90;;;-141.84;67.14;18214.69;5052372;28;20228;-57
2024/01/07 05:39:41;;;;;;;6.97;3.80;;;0.00;99.90;;;-141.84;66.23;18261.44;5053044;28;20200;-57
2024/01/07 05:42:10;;;;;;;5.80;3.93;;;0.00;99.90;;;-141.84;65.42;18269.56;5052280;28;20696;-58
2024/01/07 05:44:40;;;;;;;4.47;3.40;;;0.00;99.90;;;-141.84;65.93;18241.13;5052313;28;20249;-58
2024/01/07 05:47:08;;;;;;;6.07;4.10;;;-0.10;99.90;;;-141.84;66.09;18251.28;5044565;28;20723;-58
2024/01/07 05:49:36;;;;;;;6.43;3.70;;;-0.20;99.90;;;-141.84;65.81;18228.91;5052596;28;20233;-58
2024/01/07 05:52:06;;;;;;;3.90;3.50;;;-0.10;99.90;;;-141.84;64.90;18247.22;5052522;28;20207;-59
2024/01/07 05:54:35;;;;;;;5.27;4.10;;;-0.10;99.90;;;-141.84;65.49;18263.47;5052441;28;20228;-58
2024/01/07 05:57:05;;;;;;;7.23;4.10;;;-0.10;99.90;;;-141.84;64.78;18267.53;5052217;28;20225;-57
2024/01/07 05:59:33;;;;;;;4.90;3.57;;;0.00;99.90;;;-141.84;65.28;18287.84;5051954;28;20589;-58
2024/01/07 06:02:02;;;;;;;5.80;3.57;;;-0.10;99.90;;;-141.84;65.11;18237.06;5051871;28;20229;-58
2024/01/07 06:04:30;;;;;;;4.63;3.67;;;-0.10;99.90;;;-141.84;65.28;18257.38;5056344;28;20226;-57
2024/01/07 06:06:59;;;;;;;4.93;3.97;;;0.00;99.90;;;-141.84;65.46;18261.44;5052167;28;20214;-58
2024/01/07 06:09:27;;;;;;;4.67;3.37;;;-0.10;99.90;;;-141.84;66.25;18253.31;5051606;28;20239;-58
2024/01/07 06:11:57;;;;;;;5.20;3.67;;;-0.10;99.90;;;-141.84;65.67;18249.25;5051797;28;20235;-56
2024/01/07 06:14:26;;;;;;;4.43;3.43;;;-0.10;99.90;;;-141.84;65.86;18261.44;5043379;28;20776;-57
2024/01/07 06:16:54;;;;;;;4.80;3.33;;;-0.10;99.90;;;-141.84;65.30;18261.44;5052130;28;20228;-58
2024/01/07 06:19:22;;;;;;;5.07;3.60;;;0.10;99.90;;;-141.84;65.65;18261.44;5051778;28;20214;-58
2024/01/07 06:21:51;;;;;;;4.90;3.50;;;-0.10;99.90;;;-141.84;66.42;18245.19;5052259;28;20198;-57
2024/01/07 06:24:19;;;;;;;5.30;3.77;;;0.00;99.90;;;-141.84;66.21;18245.19;5051671;28;20226;-58
2024/01/07 06:26:47;;;;;;;3.67;3.07;;;-0.10;99.90;;;-141.84;66.04;18253.31;5051516;28;20253;-58
2024/01/07 06:29:18;;;;;;;3.63;3.10;;;-0.10;99.90;;;-141.84;66.16;18245.19;5050509;28;20275;-57
2024/01/07 06:31:48;;;;;;;5.30;3.33;;;-0.10;99.90;;;-141.84;66.08;18275.66;5051224;28;20751;-57
2024/01/07 06:34:17;;;;;;;3.50;2.80;;;-0.10;99.90;;;-141.84;67.12;18237.06;5051709;28;20678;-57
2024/01/07 06:36:45;;;;;;;4.83;3.27;;;-0.10;99.90;;;-141.84;66.74;18261.44;5051372;28;20673;-57
2024/01/07 06:39:14;;;;;;;5.50;3.20;;;-0.10;99.90;;;-141.84;66.42;18271.59;5051420;28;20220;-56
2024/01/07 06:41:42;;;;;;;4.07;2.97;;;-0.10;99.90;;;-141.84;66.73;18261.44;5051211;28;20231;-56
2024/01/07 06:44:10;;;;;;;4.03;3.07;;;-0.20;99.90;;;-141.84;67.78;18273.63;5051276;28;20294;-57
2024/01/07 06:46:40;;;;;;;4.53;3.30;;;-0.30;99.90;;;-141.84;68.82;18251.28;5051266;28;20287;-56
2024/01/07 06:49:08;;;;;;;5.67;3.27;;;-0.30;99.90;;;-141.84;68.47;18241.13;5043190;28;20593;-58
2024/01/07 06:51:38;;;;;;;3.63;2.97;;;-0.30;99.90;;;-141.84;67.52;18263.47;5051321;28;20742;-56
2024/01/07 06:54:06;;;;;;;3.93;2.90;;;-0.30;99.90;;;-141.84;68.09;18241.13;5050915;28;20225;-57
2024/01/07 06:56:37;;;;;;;3.70;2.97;;;-0.30;99.90;;;-141.84;67.40;18273.63;5051254;28;20220;-58
2024/01/07 06:59:07;;;;;;;4.47;3.17;;;-0.20;99.90;;;-141.84;66.68;18267.53;5051049;28;20242;-56
2024/01/07 07:01:35;;;;;;;3.47;2.93;;;-0.20;99.90;;;-141.84;66.71;18281.75;5051103;28;20624;-53
2024/01/07 07:04:05;;;;;;;5.70;3.47;;;-0.20;99.90;;;-141.84;66.57;18259.41;5052347;28;20201;-57
2024/01/07 07:06:34;;;;;;;4.33;3.17;;;-0.10;99.90;;;-141.84;66.50;18245.19;5054266;28;20233;-55
2024/01/07 07:09:03;;;;;;;3.60;3.20;;;-0.10;99.90;;;-141.84;65.63;18247.22;5050459;28;20225;-55
2024/01/07 07:11:31;;;;;;;4.93;3.30;;;-0.10;99.90;;;-141.84;65.93;18232.97;5049762;28;20697;-58
2024/01/07 07:13:59;;;;;;;5.33;3.70;;;-0.20;99.90;;;-141.84;65.92;18226.88;5051432;28;20229;-57
2024/01/07 07:16:28;;;;;;;4.93;3.70;;;-0.40;99.90;;;-141.84;65.03;18269.56;5050931;28;21320;-55
2024/01/07 07:18:56;;;;;;;4.83;3.50;;;-0.40;99.90;;;-141.84;64.99;18249.25;5050958;28;20902;-58
2024/01/07 07:21:27;;;;;;;4.23;3.20;;;-0.40;99.90;;;-141.84;64.71;18265.50;5050467;28;20224;-57
2024/01/07 07:23:55;;;;;;;5.47;3.90;;;-0.40;99.90;;;-141.84;64.81;18235.00;5050758;28;20795;-57
2024/01/07 07:26:24;;;;;;;4.73;3.47;;;-0.50;99.90;;;-141.84;64.94;18261.44;5050793;28;20227;-57
2024/01/07 07:28:52;;;;;;;4.63;3.83;;;-0.50;99.90;;;-141.84;65.16;18273.63;5050510;28;20326;-57
2024/01/07 07:31:21;;;;;;;5.73;3.60;;;-0.60;99.90;;;-141.84;66.26;18251.28;5050618;28;20229;-57
2024/01/07 07:33:49;;;;;;;4.80;3.57;;;-0.50;99.90;;;-141.84;64.92;18261.44;5050985;28;20656;-57
2024/01/07 07:36:18;;;;;;;5.17;3.33;;;-0.50;99.90;;;-141.84;65.13;18235.00;5050213;28;20233;-55
2024/01/07 07:38:48;;;;;;;4.43;3.87;;;-0.50;99.90;;;-141.84;64.39;18255.34;5050365;28;20228;-57
2024/01/07 07:41:16;;;;;;;4.87;3.67;;;-0.40;99.90;;;-141.84;64.69;18253.31;5050100;28;20225;-58
2024/01/07 07:43:45;;;;;;;5.90;4.07;;;-0.50;99.90;;;-141.84;65.58;18281.75;5047692;28;20297;-58
2024/01/07 07:46:13;;;;;;;5.33;3.90;;;-0.60;99.90;;;-141.84;65.65;18269.56;5045051;28;20221;-58
2024/01/07 07:48:41;;;;;;;5.87;4.30;;;-0.60;99.90;;;-141.84;66.44;18281.75;5050802;28;20594;-59
2024/01/07 07:51:10;;;;;;;7.13;4.37;;;-0.60;99.90;;;-141.84;65.72;18275.66;5044082;28;20795;-58
2024/01/07 07:53:40;;;;;;;5.70;3.20;;;-0.50;99.90;;;-141.84;63.98;18273.63;5050437;28;20308;-59
2024/01/07 07:56:10;;;;;;;4.03;3.13;;;-0.50;99.90;;;-141.84;63.75;18249.25;5050387;28;20598;-57
2024/01/07 07:58:39;;;;;;;4.37;3.30;;;-0.50;99.90;;;-141.84;63.24;18245.19;5050138;28;20231;-56
2024/01/07 08:01:08;;;;;;;4.50;3.17;;;-0.50;99.90;;;-141.84;62.85;18237.06;5050138;28;20702;-57
2024/01/07 08:03:36;;;;;;;4.90;3.10;;;-0.70;99.90;;;-141.84;62.91;18285.81;5050327;28;20198;-57
2024/01/07 08:06:05;;;;;;;3.60;3.30;;;-0.80;99.90;;;-141.84;61.98;18253.31;5052619;28;20228;-58
2024/01/07 08:08:39;;;;;;;3.60;3.07;;;-0.70;99.90;;;-141.84;62.13;18271.59;5047600;28;20221;-58
2024/01/07 08:11:09;;;;;;;3.63;3.10;;;-0.70;99.90;;;-141.84;62.29;18243.16;5050136;28;20706;-58
2024/01/07 08:13:39;;;;;;;5.13;3.57;;;-0.80;99.90;;;-141.84;61.17;18293.94;5050442;28;20282;-59
2024/01/07 08:16:09;;;;;;;5.07;3.20;;;-0.70;99.90;;;-141.84;60.89;18257.38;5031474;28;20198;-59
2024/01/07 08:18:38;;;;;;;4.50;3.23;;;-0.70;99.90;;;-141.84;59.67;18289.88;5050729;28;20777;-56
2024/01/07 08:21:06;;;;;;;5.13;4.00;;;-0.60;99.90;;;-141.84;60.14;18257.38;5049894;28;20225;-54
2024/01/07 08:23:34;;;;;;;5.37;3.50;;;-0.70;99.90;;;-141.84;60.54;18257.38;5049890;28;20225;-58
2024/01/07 08:26:03;;;;;;;4.93;3.90;;;-0.70;99.90;;;-141.84;61.04;18255.34;5049947;28;20696;-57
2024/01/07 08:28:33;;;;;;;4.00;3.20;;;-0.80;99.90;;;-141.84;60.96;18245.19;5049590;28;20769;-57
2024/01/07 08:31:01;;;;;;;4.47;3.40;;;-0.90;99.90;;;-141.84;61.16;18304.09;5050177;28;20233;-57
2024/01/07 08:33:33;;;;;;;5.03;3.40;;;-1.00;99.90;;;-141.84;60.30;18261.44;5049642;28;20226;-55
2024/01/07 08:36:01;;;;;;;3.63;3.23;;;-0.90;99.90;;;-141.84;60.83;18287.84;5049734;28;20233;-55
2024/01/07 08:38:29;;;;;;;4.57;3.00;;;-1.00;99.90;;;-141.84;60.52;18265.50;5039021;28;20801;-53
2024/01/07 08:40:58;;;;;;;4.57;3.30;;;-0.90;99.90;;;-141.84;60.74;18289.88;5044915;28;20233;-57
2024/01/07 08:43:26;;;;;;;3.80;3.40;;;-0.90;99.90;;;-141.84;60.89;18300.03;5049691;28;20260;-56
2024/01/07 08:45:55;;;;;;;3.70;3.10;;;-0.80;99.90;;;-141.84;61.49;18245.19;5050328;28;20653;-57
2024/01/07 08:48:24;;;;;;;4.23;3.17;;;-0.90;99.90;;;-141.84;61.04;18232.97;5049436;28;20218;-58
2024/01/07 08:50:53;;;;;;;4.67;3.07;;;-0.90;99.90;;;-141.84;60.21;18285.81;5047092;28;20233;-56
2024/01/07 08:53:22;;;;;;;3.23;2.93;;;-0.80;99.90;;;-141.84;59.86;18271.59;5051233;28;20248;-54
2024/01/07 08:55:50;;;;;;;4.10;2.83;;;-0.80;99.90;;;-141.84;60.22;18289.88;5053434;28;20283;-52
2024/01/07 08:58:18;;;;;;;3.17;2.60;;;-0.90;99.90;;;-141.84;60.69;18257.38;5053259;28;20220;-54
2024/01/07 09:00:47;;;;;;;3.77;2.57;;;-0.90;99.90;;;-141.84;61.34;18269.56;5052162;28;20247;-55
2024/01/07 09:03:17;;;;;;;4.33;2.97;;;-1.00;99.90;;;-141.84;59.57;18283.78;5052965;28;20229;-54
2024/01/07 09:05:46;;;;;;;3.20;2.57;;;-0.90;99.90;;;-141.84;59.63;18300.03;5053169;28;20217;-54
2024/01/07 09:08:15;;;;;;;2.87;2.50;;;-1.00;99.90;;;-141.84;59.34;18281.75;5053076;28;20241;-56
2024/01/07 09:10:43;;;;;;;3.93;2.50;;;-0.90;99.90;;;-141.84;57.41;18285.81;5053213;28;20298;-57
2024/01/07 09:13:12;;;;;;;3.60;2.40;;;-0.80;99.90;;;-141.84;57.79;18300.03;5044969;28;20208;-56
2024/01/07 09:15:40;;;;;;;2.70;2.40;;;-0.80;99.90;;;-141.84;57.92;18293.94;5053185;28;20224;-56
2024/01/07 09:18:09;;;;;;;3.00;2.37;;;-0.80;99.90;;;-141.84;56.99;18310.19;5052164;28;20224;-59
2024/01/07 09:20:39;;;;;;;2.57;2.00;;;-0.80;99.90;;;-141.84;57.67;18271.59;5052532;28;20217;-57
2024/01/07 09:23:07;;;;;;;2.77;2.07;;;-0.90;99.90;;;-141.84;57.36;18273.63;5050516;28;20249;-57
2024/01/07 09:25:35;;;;;;;3.17;2.33;;;-0.90;99.90;;;-141.84;56.86;18298.00;5045041;28;20638;-54
2024/01/07 09:28:05;;;;;;;2.30;2.10;;;-0.80;99.90;;;-141.84;56.85;18261.44;5046737;28;20600;-57
2024/01/07 09:30:33;;;;;;;4.90;2.23;;;-0.80;99.90;;;-141.84;56.48;18277.69;5044893;28;20210;-55
2024/01/07 09:33:02;;;;;;;3.03;2.50;;;-0.80;99.90;;;-141.84;56.82;18285.81;5047190;28;20232;-56
2024/01/07 09:35:31;;;;;;;2.40;2.20;;;-0.80;99.90;;;-141.84;57.07;18295.97;5045165;28;20234;-56
2024/01/07 09:38:00;;;;;;;2.67;2.10;;;-0.90;99.90;;;-141.84;56.89;18302.06;5046592;28;20225;-57
2024/01/07 09:40:29;;;;;;;2.43;2.03;;;-0.80;99.90;;;-141.84;56.60;18316.28;5042838;28;20260;-58
2024/01/07 09:42:59;;;;;;;1.80;1.70;;;-0.70;99.90;;;-141.84;55.68;18330.50;5045285;28;20247;-58
2024/01/07 09:45:30;;;;;;;3.17;2.20;;;-0.50;99.90;;;-141.84;54.84;18322.38;5046324;28;20244;-60
2024/01/07 09:47:59;;;;;;;2.30;2.10;;;-0.40;99.90;;;-141.84;55.28;18298.00;5046045;28;20222;-59
2024/01/07 09:50:27;;;;;;;3.23;2.60;;;-0.50;99.90;;;-141.84;55.18;18312.22;5042404;28;20699;-58
2024/01/07 09:53:00;;;;;;;2.40;2.10;;;-0.40;99.90;;;-141.84;55.37;18300.03;5046984;28;20299;-57
2024/01/07 09:55:45;;;;;;;3.73;2.10;;;-0.40;99.90;;;-141.84;54.63;18310.19;5051365;28;20221;-57
2024/01/07 09:58:14;;;;;;;2.07;1.80;;;-0.30;99.90;;;-141.84;54.02;18314.25;5043631;28;20194;-59
2024/01/07 10:00:42;;;;;;;3.63;2.10;;;-0.30;99.90;;;-141.84;54.31;18285.81;5050265;28;20217;-58
2024/01/07 10:03:11;;;;;;;1.87;1.70;;;-0.30;99.90;;;-141.84;54.34;18324.41;5048206;28;20736;-57
2024/01/07 10:05:39;;;;;;;2.80;2.30;;;-0.40;99.90;;;-141.84;54.29;18326.44;5040389;28;20306;-58
2024/01/07 10:08:08;;;;;;;1.50;1.40;;;-0.40;99.90;;;-141.84;54.15;18310.19;5046281;28;20221;-58
2024/01/07 10:10:40;;;;;;;3.13;1.70;;;-0.40;99.90;;;-141.84;53.73;18356.91;5051459;28;20765;-57
2024/01/07 10:13:09;;;;;;;2.43;1.70;;;-0.50;99.90;;;-141.84;54.14;18320.34;5043800;28;20194;-60